Time;durP1;ratioP1;P1;durP2;ratioP2;P2;SDS_P1;SDS_P2;PMS_P1;PMS_P2;Temp;Humidity;BMP_temperature;BMP_pressure;BME280_temperature;BME280_humidity;BME280_pressure;Samples;Min_cycle;Max_cycle;Signal;HPM_P1;HPM_P2
2024/03/31 00:01:13;;;;;;;54.17;8.88;;;15.90;73.00;;;;;;4963829;28;113224;-53
2024/03/31 00:03:40;;;;;;;71.05;10.00;;;15.80;73.30;;;;;;4962546;28;112688;-52
2024/03/31 00:06:06;;;;;;;65.15;10.07;;;15.80;73.60;;;;;;4952518;28;112709;-53
2024/03/31 00:08:32;;;;;;;66.10;10.25;;;15.80;73.80;;;;;;4960723;28;112784;-54
2024/03/31 00:11:11;;;;;;;64.43;9.65;;;15.80;74.20;;;;;;4955442;28;114924;-52
2024/03/31 00:13:37;;;;;;;63.58;9.63;;;15.70;74.50;;;;;;4954734;28;113778;-52
2024/03/31 00:16:03;;;;;;;63.75;10.48;;;15.70;74.70;;;;;;4954627;28;113512;-53
2024/03/31 00:18:28;;;;;;;61.65;9.90;;;15.70;74.90;;;;;;4951892;28;112700;-53
2024/03/31 00:20:58;;;;;;;62.45;9.18;;;15.60;75.30;;;;;;4948603;28;113364;-53
2024/03/31 00:23:24;;;;;;;65.78;10.98;;;15.70;75.30;;;;;;4948314;28;114826;-52
2024/03/31 00:25:57;;;;;;;63.45;10.85;;;15.60;75.40;;;;;;4948399;28;112930;-52
2024/03/31 00:28:24;;;;;;;61.80;9.95;;;15.70;75.50;;;;;;4948347;28;112759;-52
2024/03/31 00:30:54;;;;;;;70.88;11.35;;;15.60;75.80;;;;;;4934856;28;113248;-53
2024/03/31 00:33:20;;;;;;;77.07;10.95;;;15.60;75.90;;;;;;4947254;28;113987;-53
2024/03/31 00:35:56;;;;;;;69.47;10.75;;;15.60;76.20;;;;;;4946890;28;114766;-52
2024/03/31 00:38:24;;;;;;;74.18;10.43;;;15.60;76.60;;;;;;4948370;28;112732;-52
2024/03/31 00:40:50;;;;;;;72.05;11.60;;;15.60;77.10;;;;;;4947378;28;114469;-53
2024/03/31 00:43:16;;;;;;;63.50;11.35;;;15.60;77.90;;;;;;4947503;28;112854;-53
2024/03/31 00:45:43;;;;;;;79.97;11.55;;;15.40;78.20;;;;;;4948001;28;112760;-55
2024/03/31 00:48:09;;;;;;;79.75;11.95;;;15.40;78.60;;;;;;4947852;28;113106;-53
2024/03/31 00:50:35;;;;;;;76.15;12.10;;;15.30;79.40;;;;;;4946894;28;113298;-53
2024/03/31 00:53:01;;;;;;;86.53;12.23;;;15.30;79.60;;;;;;4978883;28;112853;-53
2024/03/31 00:55:27;;;;;;;77.25;12.07;;;15.20;79.90;;;;;;4979781;28;112646;-55
2024/03/31 00:57:53;;;;;;;79.80;11.52;;;15.20;80.00;;;;;;4948157;28;112767;-53
2024/03/31 01:00:19;;;;;;;68.45;11.43;;;15.20;80.00;;;;;;4946051;28;113439;-52
2024/03/31 01:02:45;;;;;;;79.88;12.25;;;15.20;80.10;;;;;;4945638;28;112979;-53
2024/03/31 01:05:11;;;;;;;80.93;11.98;;;15.20;80.30;;;;;;4948360;28;112918;-52
2024/03/31 01:07:37;;;;;;;79.20;12.30;;;15.20;80.80;;;;;;4947735;28;112850;-55
2024/03/31 01:10:04;;;;;;;77.97;10.30;;;15.10;80.90;;;;;;4946865;28;113304;-52
2024/03/31 01:12:31;;;;;;;80.93;11.63;;;15.10;81.00;;;;;;4945098;28;114421;-54
2024/03/31 01:14:57;;;;;;;79.80;11.80;;;15.10;81.20;;;;;;4947632;28;113487;-54
2024/03/31 01:17:23;;;;;;;81.78;12.88;;;15.10;81.10;;;;;;4947518;28;112892;-53
2024/03/31 01:19:49;;;;;;;84.55;16.77;;;15.10;81.40;;;;;;4946788;28;114424;-52
2024/03/31 01:22:15;;;;;;;97.47;14.52;;;15.00;81.80;;;;;;4946703;28;112557;-55
2024/03/31 01:24:41;;;;;;;80.40;12.13;;;14.90;82.10;;;;;;4947693;28;112854;-52
2024/03/31 01:27:07;;;;;;;82.55;11.43;;;14.90;82.00;;;;;;4947822;28;114713;-52
2024/03/31 01:29:32;;;;;;;81.95;11.57;;;15.00;82.00;;;;;;4946634;28;114602;-53
2024/03/31 01:31:58;;;;;;;80.75;11.77;;;15.00;82.10;;;;;;4946023;28;115221;-53
2024/03/31 01:34:24;;;;;;;77.55;11.82;;;15.00;81.80;;;;;;4948093;28;112613;-53
2024/03/31 01:36:50;;;;;;;82.47;11.32;;;15.10;81.70;;;;;;4952784;28;112787;-53
2024/03/31 01:39:17;;;;;;;89.07;11.85;;;15.00;81.90;;;;;;4947359;28;116386;-53
2024/03/31 01:41:48;;;;;;;72.82;11.10;;;15.00;82.10;;;;;;4948611;28;115603;-53
2024/03/31 01:44:14;;;;;;;80.28;13.18;;;15.00;82.30;;;;;;4948964;28;112892;-53
2024/03/31 01:46:39;;;;;;;86.18;11.90;;;14.90;82.50;;;;;;4943858;28;112667;-53
2024/03/31 01:49:05;;;;;;;80.65;13.57;;;14.90;82.70;;;;;;4949846;28;113399;-53
2024/03/31 01:51:31;;;;;;;77.35;11.38;;;14.90;82.60;;;;;;4953518;28;113734;-53
2024/03/31 01:53:56;;;;;;;70.72;11.43;;;14.90;82.50;;;;;;4947308;28;112540;-53
2024/03/31 01:56:22;;;;;;;87.57;12.10;;;14.90;82.70;;;;;;4947318;28;112942;-53
2024/03/31 01:58:48;;;;;;;77.93;12.65;;;14.90;82.60;;;;;;4946247;28;114252;-53
2024/03/31 02:01:14;;;;;;;87.70;12.43;;;14.90;82.60;;;;;;4946307;28;113302;-52
2024/03/31 02:03:39;;;;;;;87.75;12.38;;;14.90;82.60;;;;;;4946479;28;112935;-53
2024/03/31 02:06:11;;;;;;;80.93;11.82;;;15.00;82.40;;;;;;4947383;28;112680;-52
2024/03/31 02:08:37;;;;;;;88.25;12.43;;;15.00;82.30;;;;;;4946045;28;113274;-53
2024/03/31 02:11:03;;;;;;;87.68;12.82;;;15.00;82.30;;;;;;4945567;28;112977;-53
2024/03/31 02:13:29;;;;;;;76.20;11.57;;;14.90;82.40;;;;;;4950101;28;112448;-53
2024/03/31 02:15:54;;;;;;;88.22;13.02;;;14.90;82.80;;;;;;4950425;28;113031;-53
2024/03/31 02:18:20;;;;;;;95.72;12.50;;;14.80;83.20;;;;;;4949532;28;113371;-53
2024/03/31 02:20:46;;;;;;;75.53;11.85;;;14.80;83.20;;;;;;4949456;28;113836;-54
2024/03/31 02:23:12;;;;;;;76.18;11.50;;;14.90;83.30;;;;;;4950513;28;112705;-54
2024/03/31 02:25:38;;;;;;;82.18;12.35;;;14.80;83.20;;;;;;4949809;28;113085;-56
2024/03/31 02:28:04;;;;;;;90.78;13.02;;;14.80;83.20;;;;;;4949472;28;113157;-53
2024/03/31 02:30:29;;;;;;;80.43;11.88;;;14.80;83.30;;;;;;4949378;28;113177;-55
2024/03/31 02:32:55;;;;;;;76.45;12.20;;;14.70;83.40;;;;;;4950463;28;112903;-54
2024/03/31 02:35:22;;;;;;;88.90;12.75;;;14.70;83.60;;;;;;4949973;28;112688;-55
2024/03/31 02:37:48;;;;;;;88.78;13.55;;;14.70;83.60;;;;;;4949210;28;113188;-53
2024/03/31 02:40:14;;;;;;;88.65;13.50;;;14.70;83.50;;;;;;4949020;28;112695;-53
2024/03/31 02:42:40;;;;;;;100.00;13.65;;;14.50;84.00;;;;;;4950073;28;112712;-53
2024/03/31 02:45:06;;;;;;;91.10;14.27;;;14.40;84.40;;;;;;4950657;28;113266;-54
2024/03/31 02:47:32;;;;;;;88.20;12.57;;;14.40;84.60;;;;;;4946933;28;114677;-53
2024/03/31 02:49:58;;;;;;;93.43;13.52;;;14.50;84.60;;;;;;4948761;28;112857;-53
2024/03/31 02:52:24;;;;;;;115.57;14.88;;;14.50;84.40;;;;;;4950215;28;112647;-54
2024/03/31 02:54:50;;;;;;;95.72;14.20;;;14.40;84.70;;;;;;4949707;28;112906;-53
2024/03/31 02:57:15;;;;;;;94.80;13.50;;;14.40;84.70;;;;;;4948781;28;113217;-53
2024/03/31 02:59:41;;;;;;;103.15;15.75;;;14.50;84.60;;;;;;4949097;28;113683;-55
2024/03/31 03:02:07;;;;;;;93.10;12.43;;;14.60;84.50;;;;;;4949636;28;112583;-53
2024/03/31 03:04:33;;;;;;;92.95;13.65;;;14.60;84.30;;;;;;4949564;28;112788;-56
2024/03/31 03:06:59;;;;;;;102.68;15.20;;;14.60;84.30;;;;;;4948687;28;113253;-53
2024/03/31 03:09:25;;;;;;;101.22;13.90;;;14.50;84.50;;;;;;4948490;28;113253;-53
2024/03/31 03:11:51;;;;;;;80.35;13.40;;;14.40;85.10;;;;;;4949988;28;113123;-52
2024/03/31 03:14:17;;;;;;;91.63;13.45;;;14.40;85.30;;;;;;4949830;28;114790;-53
2024/03/31 03:16:42;;;;;;;84.47;13.13;;;14.30;85.40;;;;;;4948178;28;114554;-53
2024/03/31 03:19:08;;;;;;;91.90;12.25;;;14.40;85.40;;;;;;4949067;28;113245;-52
2024/03/31 03:21:34;;;;;;;93.63;13.63;;;14.40;85.30;;;;;;4963928;28;112665;-53
2024/03/31 03:24:00;;;;;;;84.50;13.70;;;14.40;85.20;;;;;;4948623;28;113067;-54
2024/03/31 03:26:25;;;;;;;97.97;13.15;;;14.50;85.20;;;;;;4948602;28;114402;-54
2024/03/31 03:28:51;;;;;;;82.40;12.45;;;14.60;85.00;;;;;;4948520;28;112814;-54
2024/03/31 03:31:17;;;;;;;105.72;15.73;;;14.50;85.00;;;;;;4949474;28;112591;-53
2024/03/31 03:33:42;;;;;;;97.50;14.20;;;14.50;85.10;;;;;;4949537;28;112611;-53
2024/03/31 03:36:08;;;;;;;91.13;14.13;;;14.50;85.20;;;;;;4948575;28;113225;-53
2024/03/31 03:38:34;;;;;;;87.25;12.93;;;14.60;85.10;;;;;;4947647;28;114029;-53
2024/03/31 03:41:00;;;;;;;94.78;14.63;;;14.60;85.00;;;;;;4949794;28;112765;-53
2024/03/31 03:43:32;;;;;;;98.88;14.65;;;14.60;84.90;;;;;;4949359;28;112854;-53
2024/03/31 03:46:02;;;;;;;95.85;14.48;;;14.60;84.90;;;;;;4948147;28;113153;-54
2024/03/31 03:48:28;;;;;;;93.00;13.65;;;14.60;84.90;;;;;;4948358;28;112908;-53
2024/03/31 03:50:54;;;;;;;96.80;13.75;;;14.70;84.80;;;;;;4948356;28;112871;-53
2024/03/31 03:53:20;;;;;;;110.38;15.20;;;14.60;84.90;;;;;;4949174;28;112702;-53
2024/03/31 03:55:46;;;;;;;93.53;13.45;;;14.70;85.00;;;;;;4947930;28;113358;-53
2024/03/31 03:58:12;;;;;;;91.97;13.90;;;14.60;84.90;;;;;;4947813;28;113847;-54
2024/03/31 04:00:41;;;;;;;101.00;14.10;;;14.70;84.90;;;;;;4949218;28;112860;-53
2024/03/31 04:03:07;;;;;;;108.47;14.60;;;14.70;84.90;;;;;;4948482;28;112968;-53
2024/03/31 04:05:33;;;;;;;108.68;15.95;;;14.70;84.90;;;;;;4947606;28;113222;-53
2024/03/31 04:07:59;;;;;;;102.57;14.73;;;14.80;84.90;;;;;;4946333;28;115037;-53
2024/03/31 04:10:25;;;;;;;100.90;14.00;;;14.80;84.90;;;;;;4948688;28;112925;-53
2024/03/31 04:12:50;;;;;;;101.65;15.15;;;14.80;85.00;;;;;;4948452;28;112812;-54
2024/03/31 04:15:16;;;;;;;106.75;14.57;;;14.80;85.00;;;;;;4947746;28;114417;-53
2024/03/31 04:17:42;;;;;;;100.05;14.82;;;14.80;84.90;;;;;;4947394;28;113831;-55
2024/03/31 04:20:08;;;;;;;97.38;14.38;;;14.80;85.10;;;;;;4948478;28;112542;-52
2024/03/31 04:22:34;;;;;;;113.68;15.73;;;14.80;85.00;;;;;;4948834;28;112673;-53
2024/03/31 04:25:00;;;;;;;97.25;14.15;;;14.80;85.20;;;;;;4947168;28;113864;-53
2024/03/31 04:27:26;;;;;;;92.68;13.98;;;14.80;85.10;;;;;;4947210;28;114973;-53
2024/03/31 04:29:51;;;;;;;91.78;13.73;;;14.80;85.10;;;;;;4948964;28;112833;-53
2024/03/31 04:32:17;;;;;;;113.53;15.88;;;14.80;85.00;;;;;;4948408;28;112766;-53
2024/03/31 04:34:43;;;;;;;98.32;14.15;;;14.80;85.00;;;;;;4946167;28;114299;-54
2024/03/31 04:37:10;;;;;;;99.50;14.73;;;14.80;85.00;;;;;;4947048;28;113760;-53
2024/03/31 04:39:36;;;;;;;97.25;13.70;;;14.80;85.00;;;;;;4949142;28;112581;-53
2024/03/31 04:42:01;;;;;;;107.20;14.07;;;14.80;85.10;;;;;;4948011;28;113096;-53
2024/03/31 04:44:27;;;;;;;108.55;14.93;;;14.80;85.20;;;;;;4947226;28;114383;-53
2024/03/31 04:46:53;;;;;;;107.05;16.30;;;14.80;85.20;;;;;;4946812;28;113236;-54
2024/03/31 04:49:19;;;;;;;98.28;15.00;;;14.80;85.30;;;;;;4947600;28;112473;-53
2024/03/31 04:51:48;;;;;;;107.82;16.17;;;14.80;85.20;;;;;;4948148;28;113204;-55
2024/03/31 04:54:14;;;;;;;103.03;14.80;;;14.80;85.10;;;;;;4947202;28;113286;-53
2024/03/31 04:56:39;;;;;;;91.57;13.82;;;14.80;85.10;;;;;;4946877;28;112631;-52
2024/03/31 04:59:07;;;;;;;106.28;14.95;;;14.90;85.10;;;;;;4947762;28;112481;-53
2024/03/31 05:01:33;;;;;;;104.80;15.25;;;14.90;84.90;;;;;;4947693;28;112808;-53
2024/03/31 05:03:59;;;;;;;101.18;14.55;;;14.90;84.90;;;;;;4946686;28;114293;-53
2024/03/31 05:06:25;;;;;;;85.45;13.02;;;14.90;84.90;;;;;;4947175;28;113738;-54
2024/03/31 05:08:50;;;;;;;101.75;15.52;;;14.90;84.90;;;;;;4962608;28;112648;-53
2024/03/31 05:11:16;;;;;;;103.82;15.88;;;14.90;84.80;;;;;;4948211;28;112809;-53
2024/03/31 05:13:42;;;;;;;89.70;14.70;;;14.80;85.00;;;;;;4947047;28;114831;-53
2024/03/31 05:16:10;;;;;;;94.70;14.52;;;14.80;85.30;;;;;;4946459;28;112852;-53
2024/03/31 05:18:36;;;;;;;107.18;15.45;;;14.80;85.20;;;;;;4944736;28;112759;-54
2024/03/31 05:21:07;;;;;;;98.50;13.75;;;14.70;85.40;;;;;;4947673;28;113073;-53
2024/03/31 05:23:33;;;;;;;99.53;15.68;;;14.70;85.40;;;;;;4946841;28;113324;-53
2024/03/31 05:25:59;;;;;;;117.05;18.13;;;14.70;85.30;;;;;;4946579;28;113853;-53
2024/03/31 05:28:26;;;;;;;93.18;14.50;;;14.80;85.40;;;;;;4947357;28;112764;-53
2024/03/31 05:30:52;;;;;;;108.32;14.68;;;14.80;85.30;;;;;;4947631;28;112892;-53
2024/03/31 05:33:18;;;;;;;107.57;15.38;;;14.80;85.30;;;;;;4946231;28;113274;-53
2024/03/31 05:35:45;;;;;;;111.35;16.08;;;14.80;85.30;;;;;;4946372;28;114330;-52
2024/03/31 05:38:13;;;;;;;99.65;15.13;;;14.70;85.40;;;;;;4947634;28;112574;-53
2024/03/31 05:40:44;;;;;;;109.28;16.60;;;14.80;85.40;;;;;;4947234;28;112976;-54
2024/03/31 05:43:10;;;;;;;99.25;14.60;;;14.80;85.20;;;;;;4946142;28;113634;-52
2024/03/31 05:45:37;;;;;;;89.50;13.73;;;14.90;85.10;;;;;;4946288;28;113359;-53
2024/03/31 05:48:07;;;;;;;94.03;14.90;;;14.90;85.10;;;;;;4947224;28;112588;-53
2024/03/31 05:50:33;;;;;;;104.40;15.25;;;14.90;85.10;;;;;;4946841;28;112624;-53
2024/03/31 05:52:59;;;;;;;107.55;14.80;;;14.90;85.20;;;;;;4946322;28;113202;-53
2024/03/31 05:55:25;;;;;;;106.20;14.82;;;14.90;85.10;;;;;;4946070;28;114938;-56
2024/03/31 05:57:51;;;;;;;97.85;14.00;;;14.90;85.10;;;;;;4947038;28;112542;-53
2024/03/31 06:00:17;;;;;;;105.75;14.38;;;14.90;85.00;;;;;;4947037;28;112789;-53
2024/03/31 06:02:42;;;;;;;107.82;15.63;;;15.00;84.90;;;;;;4946033;28;113373;-53
2024/03/31 06:05:08;;;;;;;105.63;14.85;;;15.10;84.70;;;;;;4946381;28;112853;-54
2024/03/31 06:07:34;;;;;;;103.35;14.77;;;15.10;84.60;;;;;;4946837;28;112535;-53
2024/03/31 06:10:00;;;;;;;109.90;15.40;;;15.10;84.60;;;;;;4946924;28;112667;-54
2024/03/31 06:12:26;;;;;;;100.38;14.65;;;15.20;84.50;;;;;;4946339;28;113771;-52
2024/03/31 06:14:52;;;;;;;102.47;16.42;;;15.30;84.30;;;;;;4946089;28;113073;-53
2024/03/31 06:17:19;;;;;;;106.97;15.57;;;15.30;84.30;;;;;;4947350;28;113380;-53
2024/03/31 06:19:45;;;;;;;103.40;15.27;;;15.40;84.10;;;;;;4946799;28;112697;-54
2024/03/31 06:22:11;;;;;;;104.63;16.35;;;15.40;84.10;;;;;;4945912;28;113194;-52
2024/03/31 06:24:37;;;;;;;100.70;15.90;;;15.40;83.90;;;;;;4946238;28;113236;-54
2024/03/31 06:27:02;;;;;;;103.00;15.60;;;15.50;83.70;;;;;;4946640;28;113077;-53
2024/03/31 06:29:28;;;;;;;111.78;14.98;;;15.40;83.80;;;;;;4946790;28;112743;-52
2024/03/31 06:31:54;;;;;;;97.57;14.50;;;15.50;83.80;;;;;;4943740;28;115653;-53
2024/03/31 06:34:19;;;;;;;103.70;15.32;;;15.50;83.70;;;;;;4945871;28;112565;-53
2024/03/31 06:36:45;;;;;;;93.28;15.50;;;15.60;83.60;;;;;;4946833;28;113770;-54
2024/03/31 06:39:12;;;;;;;97.95;16.67;;;15.60;83.50;;;;;;4947386;28;112739;-53
2024/03/31 06:41:37;;;;;;;100.75;16.27;;;15.60;83.60;;;;;;4944892;28;114431;-53
2024/03/31 06:44:03;;;;;;;90.85;16.17;;;15.70;83.40;;;;;;4945801;28;112946;-53
2024/03/31 06:46:29;;;;;;;108.70;17.23;;;15.70;83.00;;;;;;4946634;28;113089;-53
2024/03/31 06:48:54;;;;;;;97.75;17.70;;;15.70;83.10;;;;;;4945015;28;113137;-54
2024/03/31 06:51:20;;;;;;;94.72;18.33;;;15.80;83.10;;;;;;4945513;28;113318;-53
2024/03/31 06:53:47;;;;;;;105.25;16.48;;;15.80;83.00;;;;;;4945994;28;112612;-53
2024/03/31 06:56:13;;;;;;;99.05;15.38;;;15.70;82.90;;;;;;4961227;28;112733;-53
2024/03/31 06:58:39;;;;;;;110.10;16.17;;;15.80;82.80;;;;;;4947876;28;112929;-53
2024/03/31 07:01:04;;;;;;;99.60;15.35;;;15.80;82.70;;;;;;4948390;28;114604;-53
2024/03/31 07:03:30;;;;;;;88.13;13.88;;;15.90;82.60;;;;;;4948561;28;113799;-53
2024/03/31 07:05:56;;;;;;;93.25;14.70;;;15.90;82.30;;;;;;4950111;28;112742;-54
2024/03/31 07:08:22;;;;;;;92.97;15.80;;;16.00;81.90;;;;;;4949613;28;112755;-53
2024/03/31 07:10:48;;;;;;;103.65;15.68;;;16.10;81.70;;;;;;4948715;28;113745;-53
2024/03/31 07:13:14;;;;;;;89.85;14.73;;;16.10;81.50;;;;;;4947846;28;114118;-53
2024/03/31 07:15:39;;;;;;;92.55;14.55;;;16.20;81.20;;;;;;4949490;28;112841;-53
2024/03/31 07:18:07;;;;;;;94.65;14.77;;;16.10;81.30;;;;;;4949424;28;113151;-53
2024/03/31 07:20:36;;;;;;;82.07;13.00;;;16.10;81.40;;;;;;4948915;28;114673;-53
2024/03/31 07:23:03;;;;;;;95.00;15.20;;;16.00;81.50;;;;;;4960194;28;112907;-54
2024/03/31 07:25:33;;;;;;;87.40;14.80;;;16.00;81.60;;;;;;4963387;28;112639;-54
2024/03/31 07:27:58;;;;;;;107.63;15.73;;;16.00;81.80;;;;;;4951418;28;114618;-53
2024/03/31 07:30:25;;;;;;;106.60;14.40;;;15.90;81.60;;;;;;4950257;28;114393;-53
2024/03/31 07:32:52;;;;;;;102.13;14.70;;;15.90;81.90;;;;;;4956633;28;113745;-53
2024/03/31 07:35:19;;;;;;;93.85;14.05;;;15.90;81.90;;;;;;4966353;28;112488;-53
2024/03/31 07:37:45;;;;;;;97.80;16.35;;;15.90;81.90;;;;;;4952407;28;112920;-53
2024/03/31 07:40:11;;;;;;;89.30;14.40;;;15.90;81.90;;;;;;4951595;28;115041;-53
2024/03/31 07:42:36;;;;;;;85.57;13.27;;;16.00;81.70;;;;;;4954428;28;113836;-53
2024/03/31 07:45:03;;;;;;;83.53;13.82;;;16.00;81.50;;;;;;4948966;28;112654;-53
2024/03/31 07:47:29;;;;;;;91.20;13.45;;;16.20;81.20;;;;;;4956759;28;112974;-53
2024/03/31 07:49:55;;;;;;;92.72;15.02;;;16.30;80.90;;;;;;4961517;28;113185;-53
2024/03/31 07:52:21;;;;;;;84.13;14.43;;;16.30;80.70;;;;;;4957109;28;114840;-54
2024/03/31 07:54:46;;;;;;;90.78;14.88;;;16.40;80.50;;;;;;4967598;28;112925;-53
2024/03/31 07:57:12;;;;;;;90.53;14.63;;;16.30;80.50;;;;;;4954023;28;112938;-54
2024/03/31 07:59:38;;;;;;;81.35;14.32;;;16.40;80.50;;;;;;4956756;28;113241;-55
2024/03/31 08:02:04;;;;;;;97.45;15.27;;;16.30;80.60;;;;;;4956675;28;114080;-53
2024/03/31 08:04:30;;;;;;;102.00;16.83;;;16.30;80.60;;;;;;4962884;28;112558;-56
2024/03/31 08:06:56;;;;;;;103.57;15.82;;;16.30;80.60;;;;;;4961961;28;112766;-54
2024/03/31 08:09:22;;;;;;;92.30;14.85;;;16.30;80.50;;;;;;4953282;28;114382;-53
2024/03/31 08:11:47;;;;;;;98.38;14.18;;;16.20;80.60;;;;;;4952538;28;113729;-55
2024/03/31 08:14:13;;;;;;;85.30;14.02;;;16.20;80.90;;;;;;4954841;28;112642;-55
2024/03/31 08:16:38;;;;;;;85.15;13.68;;;16.20;80.80;;;;;;4964778;28;113332;-52
2024/03/31 08:19:04;;;;;;;91.80;12.85;;;16.30;80.90;;;;;;4951604;28;113264;-56
2024/03/31 08:21:30;;;;;;;82.25;13.13;;;16.20;80.80;;;;;;4956380;28;114034;-54
2024/03/31 08:23:56;;;;;;;93.97;14.45;;;16.10;81.00;;;;;;4959429;28;112833;-55
2024/03/31 08:26:21;;;;;;;89.07;14.05;;;16.10;81.60;;;;;;4956026;28;112971;-54
2024/03/31 08:28:47;;;;;;;89.25;13.95;;;16.10;81.90;;;;;;4963496;28;114427;-54
2024/03/31 08:31:13;;;;;;;78.15;12.93;;;16.10;82.00;;;;;;4959461;28;113037;-54
2024/03/31 08:33:39;;;;;;;100.18;13.80;;;16.00;82.40;;;;;;4961336;28;112678;-54
2024/03/31 08:36:05;;;;;;;87.75;13.68;;;16.10;82.80;;;;;;4965321;28;112917;-54
2024/03/31 08:38:30;;;;;;;104.25;14.70;;;16.10;83.00;;;;;;4959409;28;114471;-52
2024/03/31 08:45:59;;;;;;;89.85;16.48;;;16.30;82.30;;;;;;5014138;27;114209;-52
2024/03/31 08:48:28;;;;;;;73.47;13.13;;;16.40;82.40;;;;;;5000866;28;114084;-50
2024/03/31 08:50:55;;;;;;;78.93;13.18;;;16.30;82.10;;;;;;4986272;28;113379;-51
2024/03/31 08:53:22;;;;;;;88.03;13.23;;;16.30;82.30;;;;;;4986946;28;115202;-51
2024/03/31 08:55:48;;;;;;;90.25;14.02;;;16.20;82.40;;;;;;4982563;28;112652;-49
2024/03/31 08:58:13;;;;;;;73.53;12.82;;;16.20;82.70;;;;;;4983509;28;112918;-52
2024/03/31 09:00:43;;;;;;;86.22;13.70;;;16.20;82.80;;;;;;4994426;28;112778;-49
2024/03/31 09:03:09;;;;;;;93.00;13.77;;;16.20;82.80;;;;;;4987711;28;114418;-50
2024/03/31 09:05:39;;;;;;;90.45;14.30;;;16.20;82.70;;;;;;4982713;28;112800;-48
2024/03/31 09:08:06;;;;;;;78.28;12.82;;;16.20;82.80;;;;;;4997625;28;112945;-51
2024/03/31 09:10:33;;;;;;;89.65;12.30;;;16.20;82.70;;;;;;4994655;28;114584;-53
2024/03/31 09:12:59;;;;;;;86.32;13.63;;;16.20;83.30;;;;;;4991007;28;114774;-50
2024/03/31 09:15:24;;;;;;;88.53;13.52;;;16.40;83.20;;;;;;4983901;28;113726;-50
2024/03/31 09:17:50;;;;;;;84.82;13.15;;;16.60;83.00;;;;;;4985737;28;112840;-50
2024/03/31 09:20:16;;;;;;;75.90;13.40;;;16.60;82.90;;;;;;4998002;28;112639;-52
2024/03/31 09:22:42;;;;;;;82.47;14.23;;;16.80;82.50;;;;;;4984551;28;114595;-50
2024/03/31 09:25:08;;;;;;;72.32;13.10;;;16.90;82.60;;;;;;4989036;28;113773;-50
2024/03/31 09:27:35;;;;;;;78.07;12.98;;;17.00;82.20;;;;;;4987908;28;112626;-51
2024/03/31 09:30:01;;;;;;;76.75;13.38;;;17.30;81.60;;;;;;4994032;28;112792;-50
2024/03/31 09:32:27;;;;;;;68.15;12.38;;;17.70;80.70;;;;;;4988412;28;114109;-50
2024/03/31 09:34:54;;;;;;;92.35;12.90;;;18.00;79.30;;;;;;4995791;28;113696;-50
2024/03/31 09:37:20;;;;;;;81.13;13.93;;;18.20;79.20;;;;;;4994678;28;112641;-50
2024/03/31 09:39:46;;;;;;;81.03;12.43;;;18.10;78.30;;;;;;4998640;28;112891;-50
2024/03/31 09:42:12;;;;;;;75.53;12.55;;;18.40;78.30;;;;;;4999528;28;114640;-50
2024/03/31 09:44:41;;;;;;;65.65;12.60;;;18.70;77.20;;;;;;5000736;28;113851;-51
2024/03/31 09:47:30;;;;;;;63.25;11.95;;;19.10;75.90;;;;;;4989585;28;112597;-51
2024/03/31 09:50:15;;;;;;;67.15;13.00;;;19.70;74.10;;;;;;4985272;28;112645;-51
2024/03/31 09:52:43;;;;;;;68.30;13.15;;;19.80;73.40;;;;;;4985183;28;114410;-51
2024/03/31 09:55:18;;;;;;;68.15;11.73;;;19.90;73.20;;;;;;4980382;28;113859;-50
2024/03/31 09:57:47;;;;;;;81.00;13.20;;;19.80;72.60;;;;;;4968733;28;113009;-51
2024/03/31 10:00:14;;;;;;;72.63;13.27;;;19.60;73.20;;;;;;4969189;28;112839;-50
2024/03/31 10:02:53;;;;;;;70.28;11.90;;;19.60;73.50;;;;;;4968095;28;115208;-49
2024/03/31 10:05:40;;;;;;;74.00;12.68;;;19.60;73.10;;;;;;4968400;28;113094;-49
2024/03/31 10:08:09;;;;;;;73.35;12.80;;;20.20;71.90;;;;;;4969203;28;112870;-49
2024/03/31 10:10:38;;;;;;;62.85;11.27;;;20.30;70.10;;;;;;4969125;28;112885;-50
2024/03/31 10:13:05;;;;;;;60.38;10.38;;;19.90;70.50;;;;;;4970272;28;113280;-48
2024/03/31 10:15:32;;;;;;;67.18;10.45;;;19.50;70.60;;;;;;4978301;28;113008;-49
2024/03/31 10:17:59;;;;;;;68.90;11.18;;;19.30;71.80;;;;;;4968965;28;112619;-48
2024/03/31 10:20:26;;;;;;;63.30;10.38;;;19.30;71.50;;;;;;4985763;28;112893;-49
2024/03/31 10:22:54;;;;;;;75.15;13.65;;;19.10;72.60;;;;;;4987682;28;114874;-48
2024/03/31 10:25:22;;;;;;;72.57;11.98;;;19.70;71.40;;;;;;4987562;28;112699;-48
2024/03/31 10:27:53;;;;;;;65.68;12.00;;;19.90;70.10;;;;;;4988828;28;112508;-48
2024/03/31 10:30:19;;;;;;;71.95;12.57;;;20.30;68.90;;;;;;4988866;28;112797;-49
2024/03/31 10:32:46;;;;;;;70.65;11.82;;;20.30;68.90;;;;;;4987819;28;113207;-49
2024/03/31 10:35:12;;;;;;;75.00;12.52;;;19.90;69.50;;;;;;4987797;28;112743;-49
2024/03/31 10:37:39;;;;;;;69.03;13.05;;;19.90;70.80;;;;;;4988416;28;112788;-48
2024/03/31 10:40:06;;;;;;;82.22;12.95;;;19.90;70.50;;;;;;4988611;28;112695;-48
2024/03/31 10:42:32;;;;;;;64.32;12.02;;;19.70;70.30;;;;;;4987938;28;114746;-49
2024/03/31 10:44:58;;;;;;;77.53;12.77;;;19.40;71.00;;;;;;4987128;28;113631;-48
2024/03/31 10:47:24;;;;;;;76.32;12.63;;;18.90;72.80;;;;;;4988269;28;113069;-48
2024/03/31 10:50:00;;;;;;;81.28;14.20;;;18.70;73.90;;;;;;4988131;28;112772;-48
2024/03/31 10:52:27;;;;;;;74.85;13.02;;;18.40;74.20;;;;;;4987401;28;113442;-48
2024/03/31 10:54:55;;;;;;;63.05;12.05;;;18.20;75.10;;;;;;4987472;28;113004;-49
2024/03/31 10:57:22;;;;;;;75.97;12.93;;;18.20;75.60;;;;;;4988240;28;112932;-49
2024/03/31 10:59:48;;;;;;;80.40;12.60;;;18.10;75.70;;;;;;4988459;28;112811;-49
2024/03/31 11:02:14;;;;;;;76.75;12.55;;;17.80;76.30;;;;;;4987198;28;113264;-49
2024/03/31 11:04:44;;;;;;;73.38;12.57;;;17.90;77.00;;;;;;4987277;28;113142;-50
2024/03/31 11:07:15;;;;;;;82.78;13.05;;;17.90;77.10;;;;;;4987640;28;113148;-50
2024/03/31 11:09:42;;;;;;;74.13;12.50;;;17.80;75.70;;;;;;4988081;28;113029;-49
2024/03/31 11:12:11;;;;;;;91.40;13.60;;;17.80;75.90;;;;;;4987259;28;113204;-49
2024/03/31 11:14:38;;;;;;;70.55;12.73;;;17.80;75.60;;;;;;4985555;28;113813;-48
2024/03/31 11:17:05;;;;;;;88.30;12.73;;;17.80;75.70;;;;;;4983225;28;112731;-49
2024/03/31 11:19:31;;;;;;;69.95;13.35;;;17.80;75.60;;;;;;4978575;28;112851;-48
2024/03/31 11:22:05;;;;;;;80.55;13.05;;;17.70;76.00;;;;;;4986747;28;114511;-49
2024/03/31 11:24:34;;;;;;;85.85;13.23;;;17.70;76.30;;;;;;4987009;28;112662;-48
2024/03/31 11:27:01;;;;;;;80.55;12.40;;;17.50;76.70;;;;;;4987491;28;112713;-49
2024/03/31 11:29:27;;;;;;;83.38;13.10;;;17.50;77.10;;;;;;4987923;28;112715;-49
2024/03/31 11:31:53;;;;;;;70.97;12.50;;;17.40;77.70;;;;;;4986868;28;113401;-49
2024/03/31 11:34:19;;;;;;;82.05;12.45;;;17.40;78.00;;;;;;4986863;28;113769;-49
2024/03/31 11:36:45;;;;;;;85.57;12.98;;;17.30;78.70;;;;;;4987763;28;113195;-51
2024/03/31 11:39:14;;;;;;;82.13;13.98;;;17.10;78.60;;;;;;4987870;28;113057;-48
2024/03/31 11:41:41;;;;;;;84.93;12.80;;;16.90;79.70;;;;;;4985757;28;115406;-49
2024/03/31 11:44:07;;;;;;;89.53;14.55;;;16.90;80.20;;;;;;4985952;28;113987;-50
2024/03/31 11:46:35;;;;;;;96.50;14.02;;;16.90;80.50;;;;;;4987836;28;112677;-53
2024/03/31 11:49:02;;;;;;;79.65;13.45;;;17.00;81.40;;;;;;4987402;28;112807;-49
2024/03/31 11:51:33;;;;;;;86.35;13.52;;;17.30;80.90;;;;;;4986648;28;114494;-49
2024/03/31 11:53:59;;;;;;;72.00;12.40;;;17.40;80.00;;;;;;4986618;28;112835;-49
2024/03/31 11:56:25;;;;;;;81.65;12.98;;;17.50;80.20;;;;;;4987057;28;112510;-49
2024/03/31 11:58:51;;;;;;;91.78;13.60;;;17.40;80.60;;;;;;4987745;28;112734;-50
2024/03/31 12:01:19;;;;;;;81.00;12.98;;;17.40;80.00;;;;;;4986439;28;113200;-49
2024/03/31 12:03:53;;;;;;;66.05;12.20;;;17.40;80.00;;;;;;4986256;28;112794;-49
2024/03/31 12:06:20;;;;;;;82.30;13.00;;;17.50;80.10;;;;;;4987045;28;112652;-49
2024/03/31 12:08:46;;;;;;;84.05;12.35;;;17.50;80.40;;;;;;4987259;28;112830;-49
2024/03/31 12:11:12;;;;;;;87.97;13.07;;;17.50;80.50;;;;;;4986274;28;113356;-49
2024/03/31 12:13:38;;;;;;;76.97;13.40;;;17.70;81.00;;;;;;4986103;28;113850;-50
2024/03/31 12:16:07;;;;;;;72.90;13.38;;;18.00;80.20;;;;;;4987268;28;112953;-49
2024/03/31 12:18:32;;;;;;;75.97;14.70;;;18.90;77.30;;;;;;4972940;28;112739;-49